Time;durP1;ratioP1;P1;durP2;ratioP2;P2;SDS_P1;SDS_P2;PMS_P1;PMS_P2;Temp;Humidity;BMP_temperature;BMP_pressure;BME280_temperature;BME280_humidity;BME280_pressure;Samples;Min_cycle;Max_cycle;Signal;HPM_P1;HPM_P2
2021/01/19 00:01:21;;;;;;;68.20;32.75;;;-5.30;86.60;;;;;;5088263;28;20032;-66
2021/01/19 00:03:47;;;;;;;64.40;31.75;;;-5.30;86.50;;;;;;5088222;28;20504;-66
2021/01/19 00:06:13;;;;;;;64.20;30.15;;;-5.40;86.60;;;;;;5088567;28;20120;-66
2021/01/19 00:08:39;;;;;;;68.65;33.50;;;-5.50;86.90;;;;;;5069950;28;20110;-66
2021/01/19 00:11:05;;;;;;;66.85;32.03;;;-5.50;87.20;;;;;;5087184;28;20063;-66
2021/01/19 00:13:31;;;;;;;67.53;31.60;;;-5.60;87.60;;;;;;5087516;28;20039;-66
2021/01/19 00:15:57;;;;;;;58.83;27.77;;;-5.70;87.80;;;;;;5087834;28;20500;-68
2021/01/19 00:18:23;;;;;;;61.67;30.33;;;-5.70;88.00;;;;;;5087768;28;20166;-67
2021/01/19 00:20:48;;;;;;;71.28;32.28;;;-5.70;88.20;;;;;;5085765;28;20420;-67
2021/01/19 00:23:14;;;;;;;61.95;29.67;;;-5.80;88.30;;;;;;5087936;28;20059;-67
2021/01/19 00:25:40;;;;;;;67.65;32.83;;;-5.80;88.50;;;;;;5087532;28;20378;-68
2021/01/19 00:28:06;;;;;;;78.00;33.13;;;-5.70;88.70;;;;;;5091789;28;20043;-67
2021/01/19 00:30:32;;;;;;;89.03;37.10;;;-5.70;88.70;;;;;;5069565;28;20036;-67
2021/01/19 00:32:58;;;;;;;113.53;45.20;;;-5.60;88.70;;;;;;5094211;28;20635;-68
2021/01/19 00:35:25;;;;;;;104.10;44.40;;;-5.60;88.40;;;;;;5070965;28;20043;-68
2021/01/19 00:37:50;;;;;;;88.18;37.80;;;-5.50;88.00;;;;;;5089611;28;20047;-67
2021/01/19 00:40:16;;;;;;;94.93;40.75;;;-5.50;87.70;;;;;;5087548;28;20059;-66
2021/01/19 00:42:42;;;;;;;84.93;38.40;;;-5.50;87.60;;;;;;5095013;28;20475;-67
2021/01/19 00:45:08;;;;;;;85.13;41.22;;;-5.50;87.60;;;;;;5089213;28;20050;-68
2021/01/19 00:47:34;;;;;;;80.68;41.55;;;-5.50;87.80;;;;;;5087343;28;20180;-68
2021/01/19 00:49:59;;;;;;;74.43;34.85;;;-5.50;88.00;;;;;;5088762;28;20088;-67
2021/01/19 00:52:25;;;;;;;83.82;36.72;;;-5.60;88.30;;;;;;5090531;28;20130;-68
2021/01/19 00:54:50;;;;;;;77.85;36.88;;;-5.60;88.60;;;;;;5086920;28;20072;-66
2021/01/19 00:57:16;;;;;;;76.20;34.80;;;-5.60;88.60;;;;;;5096504;27;20494;-67
2021/01/19 00:59:42;;;;;;;77.40;36.75;;;-5.60;89.30;;;;;;5087138;28;20036;-67
2021/01/19 01:02:07;;;;;;;68.40;31.65;;;-5.50;88.70;;;;;;5091105;28;20043;-65
2021/01/19 01:04:33;;;;;;;77.57;35.75;;;-5.60;88.70;;;;;;5088808;28;20039;-65
2021/01/19 01:06:58;;;;;;;85.07;37.53;;;-5.50;88.80;;;;;;5088943;28;20120;-67
2021/01/19 01:09:24;;;;;;;89.93;40.08;;;-5.40;88.50;;;;;;5090438;28;20035;-66
2021/01/19 01:11:50;;;;;;;80.07;37.65;;;-5.50;88.10;;;;;;5089125;28;20139;-66
2021/01/19 01:14:15;;;;;;;94.50;40.85;;;-5.40;88.00;;;;;;5088511;28;20107;-66
2021/01/19 01:16:41;;;;;;;91.40;41.72;;;-5.40;87.60;;;;;;5089318;28;20611;-66
2021/01/19 01:19:08;;;;;;;93.05;43.05;;;-5.50;87.60;;;;;;5093213;28;20066;-66
2021/01/19 01:21:40;;;;;;;108.55;46.85;;;-5.40;87.40;;;;;;5092659;28;20036;-67
2021/01/19 01:24:07;;;;;;;81.03;38.83;;;-5.40;87.00;;;;;;5088558;28;20047;-67
2021/01/19 01:26:33;;;;;;;97.50;42.95;;;-5.40;86.50;;;;;;5071700;28;20480;-67
2021/01/19 01:28:59;;;;;;;101.68;44.30;;;-5.40;86.70;;;;;;5111359;27;20036;-67
2021/01/19 01:31:25;;;;;;;81.78;36.85;;;-5.40;87.10;;;;;;5112605;27;20028;-66
2021/01/19 01:33:50;;;;;;;76.85;36.00;;;-5.50;87.20;;;;;;5109210;27;20035;-65
2021/01/19 01:36:16;;;;;;;74.88;34.72;;;-5.40;87.10;;;;;;5108140;27;20177;-65
2021/01/19 01:38:43;;;;;;;71.65;33.85;;;-5.50;86.90;;;;;;5110554;27;20440;-66
2021/01/19 01:41:19;;;;;;;86.03;36.75;;;-5.50;87.10;;;;;;5114326;27;20090;-69
2021/01/19 01:43:46;;;;;;;76.22;35.50;;;-5.50;87.80;;;;;;5111086;27;20044;-66
2021/01/19 01:46:16;;;;;;;78.35;33.47;;;-5.50;87.70;;;;;;5090036;27;20039;-67
2021/01/19 01:48:43;;;;;;;73.57;36.40;;;-5.50;87.70;;;;;;5107863;27;20816;-66
2021/01/19 01:51:10;;;;;;;81.50;35.70;;;-5.40;87.70;;;;;;5108944;27;20077;-67
2021/01/19 01:53:42;;;;;;;78.75;37.03;;;-5.50;87.80;;;;;;5105835;28;20867;-68
2021/01/19 01:56:10;;;;;;;80.85;37.10;;;-5.40;88.00;;;;;;5106182;27;20074;-67
2021/01/19 01:58:37;;;;;;;86.25;37.38;;;-5.40;87.50;;;;;;5108038;27;20067;-66
2021/01/19 02:01:04;;;;;;;81.13;35.80;;;-5.40;87.30;;;;;;5109261;27;20103;-65
2021/01/19 02:03:30;;;;;;;77.32;34.58;;;-5.30;87.30;;;;;;5106431;27;20110;-66
2021/01/19 02:05:55;;;;;;;74.97;33.85;;;-5.30;86.80;;;;;;5109168;27;20105;-67
2021/01/19 02:08:53;;;;;;;78.10;35.42;;;-5.30;86.40;;;;;;5113166;27;20040;-65
2021/01/19 02:11:42;;;;;;;71.90;34.00;;;-5.30;86.30;;;;;;5109142;27;20035;-66
2021/01/19 02:14:12;;;;;;;75.40;34.45;;;-5.30;86.20;;;;;;5086028;28;20526;-66
2021/01/19 02:16:50;;;;;;;79.20;35.83;;;-5.30;86.10;;;;;;5087703;28;20032;-68
2021/01/19 02:19:37;;;;;;;75.10;33.85;;;-5.30;86.50;;;;;;5107165;27;20047;-68
2021/01/19 02:22:47;;;;;;;79.93;35.95;;;-5.30;86.80;;;;;;5106067;28;20039;-67
2021/01/19 02:25:46;;;;;;;75.85;33.15;;;-5.30;87.30;;;;;;5105233;28;20027;-66
2021/01/19 02:28:24;;;;;;;82.65;35.55;;;-5.30;86.80;;;;;;5106003;28;20070;-67
2021/01/19 02:31:06;;;;;;;80.13;35.88;;;-5.20;86.60;;;;;;5087499;28;20042;-67
2021/01/19 02:33:50;;;;;;;72.18;33.83;;;-5.30;86.90;;;;;;5104581;28;20118;-68
2021/01/19 02:36:32;;;;;;;69.38;32.67;;;-5.30;87.20;;;;;;5105393;28;20499;-67
2021/01/19 02:38:59;;;;;;;76.85;34.88;;;-5.30;87.10;;;;;;5104971;27;20075;-66
2021/01/19 02:41:26;;;;;;;79.22;34.95;;;-5.30;87.20;;;;;;5105783;28;20043;-65
2021/01/19 02:44:10;;;;;;;73.50;34.85;;;-5.30;87.30;;;;;;5105284;28;20040;-66
2021/01/19 02:46:36;;;;;;;73.78;34.30;;;-5.20;87.50;;;;;;5101428;28;20501;-67
2021/01/19 02:49:02;;;;;;;75.45;33.08;;;-5.20;87.60;;;;;;5103188;28;20058;-67
2021/01/19 02:51:28;;;;;;;65.07;29.83;;;-5.20;87.70;;;;;;5105251;28;20582;-66
2021/01/19 02:53:55;;;;;;;75.88;33.65;;;-5.10;87.70;;;;;;5104883;28;20035;-66
2021/01/19 02:56:41;;;;;;;81.32;37.45;;;-5.10;87.10;;;;;;5105071;28;20081;-66
2021/01/19 02:59:38;;;;;;;72.90;34.20;;;-5.00;86.70;;;;;;5105270;28;20080;-67
2021/01/19 03:02:10;;;;;;;72.07;32.90;;;-5.00;86.20;;;;;;5104154;28;20114;-65
2021/01/19 03:04:41;;;;;;;73.50;34.90;;;-5.00;86.30;;;;;;5085640;28;20076;-66
2021/01/19 03:07:08;;;;;;;69.22;34.95;;;-5.00;86.10;;;;;;5105430;28;20055;-68
2021/01/19 03:09:40;;;;;;;75.63;33.85;;;-5.00;86.50;;;;;;5105063;28;20047;-68
2021/01/19 03:12:09;;;;;;;70.20;32.78;;;-5.00;86.70;;;;;;5105182;28;20039;-65
2021/01/19 03:14:36;;;;;;;70.32;32.33;;;-5.00;86.80;;;;;;5100402;28;20031;-65
2021/01/19 03:17:07;;;;;;;78.55;34.65;;;-5.00;87.00;;;;;;5104640;28;20061;-65
2021/01/19 03:19:38;;;;;;;73.85;32.97;;;-5.00;86.70;;;;;;5100899;28;20035;-66
2021/01/19 03:22:04;;;;;;;79.82;34.72;;;-5.00;86.20;;;;;;5105173;28;20042;-65
2021/01/19 03:24:30;;;;;;;73.68;32.15;;;-5.00;86.00;;;;;;5101261;28;20369;-65
2021/01/19 03:26:55;;;;;;;75.10;34.95;;;-5.00;86.20;;;;;;5104407;28;20083;-64
2021/01/19 03:29:21;;;;;;;64.47;31.25;;;-5.00;86.50;;;;;;5086706;28;20062;-66
2021/01/19 03:31:47;;;;;;;74.30;34.47;;;-4.90;86.40;;;;;;5089064;28;20122;-65
2021/01/19 03:34:13;;;;;;;73.20;33.55;;;-4.80;86.20;;;;;;5108641;28;20106;-65
2021/01/19 03:36:39;;;;;;;64.28;31.48;;;-4.80;85.80;;;;;;5108654;28;20150;-65
2021/01/19 03:39:04;;;;;;;70.20;31.52;;;-4.80;85.30;;;;;;5105782;28;20094;-66
2021/01/19 03:41:30;;;;;;;72.35;32.92;;;-4.80;85.10;;;;;;5108529;28;20039;-65
2021/01/19 03:43:57;;;;;;;70.35;32.63;;;-4.80;85.30;;;;;;5109154;28;20039;-65
2021/01/19 03:46:23;;;;;;;72.18;32.53;;;-4.90;85.20;;;;;;5103114;28;20038;-68
2021/01/19 03:48:49;;;;;;;74.80;35.53;;;-4.80;85.20;;;;;;5108992;28;20043;-67
2021/01/19 03:51:15;;;;;;;69.68;33.22;;;-4.80;85.20;;;;;;5108957;28;20051;-66
2021/01/19 03:53:40;;;;;;;73.90;31.50;;;-4.80;85.10;;;;;;5104630;28;20042;-67
2021/01/19 03:56:06;;;;;;;74.43;32.90;;;-4.80;85.30;;;;;;5108461;28;20044;-66
2021/01/19 03:58:32;;;;;;;70.72;34.95;;;-4.80;85.10;;;;;;5108578;28;20039;-67
2021/01/19 04:00:57;;;;;;;72.88;34.80;;;-4.80;85.10;;;;;;5089680;28;20514;-66
2021/01/19 04:03:23;;;;;;;69.47;33.10;;;-4.70;85.20;;;;;;5108593;28;20493;-66
2021/01/19 04:05:49;;;;;;;76.80;34.65;;;-4.70;85.40;;;;;;5108510;28;20044;-65
2021/01/19 04:08:14;;;;;;;71.85;34.75;;;-4.70;85.60;;;;;;5108340;28;20142;-66
2021/01/19 04:10:40;;;;;;;73.65;33.53;;;-4.70;85.50;;;;;;5108478;28;20027;-66
2021/01/19 04:13:05;;;;;;;68.90;32.90;;;-4.70;85.60;;;;;;5108054;28;20035;-67
2021/01/19 04:15:31;;;;;;;70.38;32.75;;;-4.70;85.20;;;;;;5108290;28;20412;-67
2021/01/19 04:17:57;;;;;;;69.55;34.03;;;-4.60;85.10;;;;;;5108442;28;20040;-68
2021/01/19 04:20:22;;;;;;;;;;;-4.60;85.30;;;;;;5108376;28;20044;-68
2021/01/19 04:22:48;;;;;;;66.88;31.40;;;-4.70;85.20;;;;;;5107740;27;20394;-67
2021/01/19 04:25:13;;;;;;;70.35;33.53;;;-4.70;85.40;;;;;;5108363;28;20507;-67
2021/01/19 04:27:39;;;;;;;69.15;32.72;;;-4.70;85.60;;;;;;5107653;28;20115;-67
2021/01/19 04:30:09;;;;;;;71.22;32.58;;;-4.70;85.30;;;;;;5108263;28;20036;-67
2021/01/19 04:32:36;;;;;;;75.93;34.30;;;-4.70;85.10;;;;;;5107545;28;20511;-67
2021/01/19 04:35:02;;;;;;;65.85;31.60;;;-4.60;85.20;;;;;;5088298;28;20035;-67
2021/01/19 04:37:28;;;;;;;74.65;31.83;;;-4.70;85.40;;;;;;5106946;28;20050;-66
2021/01/19 04:39:53;;;;;;;67.45;32.58;;;-4.60;85.20;;;;;;5108195;28;20032;-67
2021/01/19 04:42:20;;;;;;;74.60;35.38;;;-4.60;85.30;;;;;;5088612;28;20039;-66
2021/01/19 04:44:47;;;;;;;82.38;38.20;;;-4.70;85.60;;;;;;5108044;28;20024;-67
2021/01/19 04:47:13;;;;;;;69.28;34.85;;;-4.70;85.90;;;;;;5103867;28;20509;-67
2021/01/19 04:49:41;;;;;;;78.90;35.90;;;-4.70;85.90;;;;;;5102699;28;20104;-67
2021/01/19 04:52:13;;;;;;;75.15;34.38;;;-4.70;86.60;;;;;;5107241;27;20077;-66
2021/01/19 04:54:57;;;;;;;71.03;32.20;;;-4.70;86.00;;;;;;5105981;28;20036;-67
2021/01/19 04:57:29;;;;;;;74.50;33.78;;;-4.60;86.20;;;;;;5088970;28;20084;-67
2021/01/19 05:00:00;;;;;;;76.82;35.20;;;-4.60;85.80;;;;;;5089274;28;20131;-66
2021/01/19 05:02:35;;;;;;;71.57;33.80;;;-4.60;85.80;;;;;;5104004;28;20042;-66
2021/01/19 05:05:33;;;;;;;75.75;35.03;;;-4.60;85.80;;;;;;5088668;28;20572;-67
2021/01/19 05:08:24;;;;;;;75.97;35.53;;;-4.60;86.40;;;;;;5083724;28;20043;-67
2021/01/19 05:11:00;;;;;;;69.75;32.20;;;-4.60;86.60;;;;;;5102255;28;20054;-67
2021/01/19 05:14:01;;;;;;;68.20;30.38;;;-4.60;86.90;;;;;;5087847;28;20526;-66
2021/01/19 05:16:36;;;;;;;74.90;35.38;;;-4.60;86.80;;;;;;5104138;28;20172;-65
2021/01/19 05:19:05;;;;;;;67.18;32.28;;;-4.60;86.80;;;;;;5105267;28;20039;-67
2021/01/19 05:21:36;;;;;;;70.15;33.35;;;-4.50;86.90;;;;;;5088186;28;20134;-67
2021/01/19 05:24:02;;;;;;;68.28;31.52;;;-4.50;86.90;;;;;;5107023;28;20050;-67
2021/01/19 05:26:27;;;;;;;87.45;35.95;;;-4.50;86.80;;;;;;5106437;28;20059;-65
2021/01/19 05:28:54;;;;;;;70.75;32.42;;;-4.50;86.90;;;;;;5106953;28;20040;-66
2021/01/19 05:31:23;;;;;;;82.43;36.92;;;-4.40;86.90;;;;;;5086742;28;20377;-67
2021/01/19 05:33:53;;;;;;;69.65;33.83;;;-4.40;87.00;;;;;;5101786;28;20576;-67
2021/01/19 05:36:20;;;;;;;73.00;36.92;;;-4.40;87.10;;;;;;5106489;28;20043;-68
2021/01/19 05:38:48;;;;;;;75.45;36.78;;;-4.40;87.20;;;;;;5106426;28;20040;-66
2021/01/19 05:41:41;;;;;;;77.65;36.03;;;-4.30;87.20;;;;;;5106150;28;20514;-67
2021/01/19 05:44:13;;;;;;;85.22;40.25;;;-4.30;87.40;;;;;;5106397;28;20036;-67
2021/01/19 05:46:55;;;;;;;87.85;39.10;;;-4.30;87.50;;;;;;5106174;28;20062;-67
2021/01/19 05:49:27;;;;;;;75.95;37.47;;;-4.30;87.60;;;;;;5106563;28;20459;-67
2021/01/19 05:52:05;;;;;;;93.00;43.67;;;-4.30;87.70;;;;;;5087411;28;20078;-66
2021/01/19 05:54:42;;;;;;;115.30;51.20;;;-4.30;87.60;;;;;;5086555;28;20041;-67
2021/01/19 05:57:28;;;;;;;87.68;41.80;;;-4.30;87.70;;;;;;5106584;28;20093;-66
2021/01/19 05:59:55;;;;;;;103.30;46.03;;;-4.30;87.70;;;;;;5105666;28;20063;-67
2021/01/19 06:02:23;;;;;;;111.20;50.20;;;-4.30;87.90;;;;;;5106017;28;20043;-67
2021/01/19 06:04:51;;;;;;;121.47;55.15;;;-4.20;87.90;;;;;;5106202;28;20392;-66
2021/01/19 06:07:25;;;;;;;111.95;51.38;;;-4.20;88.10;;;;;;5103629;28;20407;-67
2021/01/19 06:09:51;;;;;;;99.38;47.33;;;-4.20;88.20;;;;;;5101869;28;20658;-66
2021/01/19 06:12:19;;;;;;;130.57;57.33;;;-4.20;88.10;;;;;;5106255;28;20031;-67
2021/01/19 06:14:51;;;;;;;138.10;60.13;;;-4.20;88.20;;;;;;5106105;28;20092;-68
2021/01/19 06:17:22;;;;;;;127.25;55.80;;;-4.20;88.10;;;;;;5102667;28;20518;-67
2021/01/19 06:19:58;;;;;;;116.97;56.13;;;-4.20;88.20;;;;;;5105674;28;20122;-68
2021/01/19 06:22:25;;;;;;;107.55;51.50;;;-4.20;88.20;;;;;;5105570;28;20057;-67
2021/01/19 06:24:58;;;;;;;115.43;49.25;;;-4.20;88.00;;;;;;5105237;28;20407;-67
2021/01/19 06:27:25;;;;;;;104.50;47.85;;;-4.20;87.90;;;;;;5096682;27;20131;-67
2021/01/19 06:30:00;;;;;;;114.05;54.45;;;-4.20;87.90;;;;;;5084618;28;20500;-66
2021/01/19 06:32:30;;;;;;;121.43;54.72;;;-4.20;87.70;;;;;;5089378;28;20551;-66
2021/01/19 06:35:07;;;;;;;128.75;56.63;;;-4.10;87.70;;;;;;5092619;28;20028;-67
2021/01/19 06:37:34;;;;;;;109.13;52.78;;;-4.10;87.80;;;;;;5087380;28;20508;-68
2021/01/19 06:40:08;;;;;;;109.95;52.40;;;-4.10;87.90;;;;;;5091845;28;20044;-68
2021/01/19 06:42:35;;;;;;;113.80;55.45;;;-4.10;88.10;;;;;;5072354;28;20036;-68
2021/01/19 06:45:07;;;;;;;111.25;55.22;;;-4.10;88.40;;;;;;5092211;28;20104;-67
2021/01/19 06:47:53;;;;;;;125.13;60.15;;;-4.00;88.40;;;;;;5088069;28;20093;-68
2021/01/19 06:50:23;;;;;;;138.85;62.45;;;-4.10;88.20;;;;;;5087160;28;20044;-68
2021/01/19 06:53:14;;;;;;;119.00;57.20;;;-4.10;88.40;;;;;;5085096;28;20040;-67
2021/01/19 06:56:07;;;;;;;144.98;68.53;;;-4.10;88.50;;;;;;5047775;28;20105;-68
2021/01/19 06:58:49;;;;;;;125.53;54.05;;;-4.00;88.40;;;;;;5086804;28;20461;-69
2021/01/19 07:01:18;;;;;;;139.50;65.93;;;-4.00;88.10;;;;;;5085514;28;20115;-65
2021/01/19 07:03:44;;;;;;;112.53;51.63;;;-4.00;87.90;;;;;;5085480;28;20106;-67
2021/01/19 07:06:12;;;;;;;106.60;48.63;;;-3.90;87.80;;;;;;5091220;28;20114;-68
2021/01/19 07:08:56;;;;;;;119.68;51.55;;;-3.90;87.90;;;;;;5071152;28;20039;-69
2021/01/19 07:11:36;;;;;;;120.90;50.17;;;-4.00;87.90;;;;;;5091820;28;20154;-67
2021/01/19 07:14:15;;;;;;;115.95;51.00;;;-3.90;88.20;;;;;;5089694;28;20060;-69
2021/01/19 07:16:56;;;;;;;121.65;51.03;;;-4.00;88.40;;;;;;5093576;28;20043;-68
2021/01/19 07:20:00;;;;;;;110.32;48.47;;;-3.90;88.60;;;;;;5088944;28;20036;-68
2021/01/19 07:23:01;;;;;;;118.90;54.30;;;-3.90;88.60;;;;;;5008416;28;20038;-67
2021/01/19 07:25:28;;;;;;;138.25;65.40;;;-3.90;88.70;;;;;;5087909;28;20060;-68
2021/01/19 07:27:55;;;;;;;136.68;58.50;;;-3.80;88.90;;;;;;5089162;28;20491;-66
2021/01/19 07:30:22;;;;;;;147.43;70.57;;;-3.80;89.00;;;;;;5088992;28;20059;-68
2021/01/19 07:32:50;;;;;;;157.23;76.78;;;-3.70;89.00;;;;;;5071342;28;20055;-67
2021/01/19 07:35:21;;;;;;;155.98;66.55;;;-3.60;89.00;;;;;;5094338;28;20040;-68
2021/01/19 07:37:55;;;;;;;140.20;66.68;;;-3.60;88.40;;;;;;5091196;27;20036;-66
2021/01/19 07:40:21;;;;;;;166.73;83.57;;;-3.60;88.60;;;;;;5092946;28;20496;-68
2021/01/19 07:42:48;;;;;;;152.60;67.15;;;-3.50;88.60;;;;;;5089957;28;20090;-67
2021/01/19 07:45:15;;;;;;;127.82;61.80;;;-3.40;88.60;;;;;;5089835;28;20107;-67
2021/01/19 07:47:42;;;;;;;132.45;57.88;;;-3.40;88.40;;;;;;5091991;28;20126;-67
2021/01/19 07:50:16;;;;;;;140.77;60.95;;;-3.30;88.20;;;;;;5070306;28;20032;-65
2021/01/19 07:52:44;;;;;;;129.00;57.95;;;-3.20;87.90;;;;;;5089958;28;20094;-67
2021/01/19 07:55:22;;;;;;;119.82;57.67;;;-3.10;87.80;;;;;;5089912;28;20063;-66
2021/01/19 07:57:50;;;;;;;152.57;69.95;;;-3.00;87.70;;;;;;5092290;28;20061;-66
2021/01/19 08:00:24;;;;;;;141.82;63.55;;;-2.90;87.40;;;;;;5090879;28;20609;-66
2021/01/19 08:03:03;;;;;;;168.68;72.43;;;-2.80;87.10;;;;;;5090503;28;20243;-66
2021/01/19 08:05:28;;;;;;;160.27;73.07;;;-2.80;86.50;;;;;;5071555;28;20040;-64
2021/01/19 08:07:56;;;;;;;;;;;-2.80;86.60;;;;;;5088285;28;20043;-65
2021/01/19 08:10:23;;;;;;;173.70;77.95;;;-2.70;87.00;;;;;;5088426;28;19912;-66
2021/01/19 08:12:52;;;;;;;164.05;70.63;;;-2.60;86.30;;;;;;5070152;28;20047;-66
2021/01/19 08:15:22;;;;;;;148.40;64.70;;;-2.50;85.90;;;;;;5088576;28;20040;-66
2021/01/19 08:17:53;;;;;;;133.30;58.75;;;-2.40;86.00;;;;;;5080958;28;20039;-66
2021/01/19 08:20:27;;;;;;;114.93;54.38;;;-2.40;85.60;;;;;;5076178;28;20323;-66
2021/01/19 08:22:54;;;;;;;114.05;53.72;;;-2.30;84.80;;;;;;5090362;28;20035;-66
2021/01/19 08:25:24;;;;;;;134.75;62.35;;;-2.30;84.70;;;;;;5092309;28;20536;-65
2021/01/19 08:27:50;;;;;;;138.95;62.28;;;-2.20;84.20;;;;;;5103739;28;20647;-65
2021/01/19 08:30:17;;;;;;;;;;;-2.10;84.30;;;;;;5100575;28;20146;-65
2021/01/19 08:32:46;;;;;;;108.90;52.05;;;-2.10;83.90;;;;;;5107877;28;20002;-65
2021/01/19 08:35:15;;;;;;;114.75;54.33;;;-2.00;83.90;;;;;;5107897;28;20519;-65
2021/01/19 08:37:45;;;;;;;110.50;50.25;;;-2.00;83.80;;;;;;5104049;28;20131;-66
2021/01/19 08:40:20;;;;;;;94.30;42.97;;;-2.00;83.50;;;;;;5106694;28;20208;-66
2021/01/19 08:42:46;;;;;;;165.93;74.15;;;-2.00;83.40;;;;;;5108279;27;20051;-65
2021/01/19 08:45:12;;;;;;;;;;;-1.90;83.30;;;;;;5086029;28;20039;-66
2021/01/19 08:47:40;;;;;;;92.53;41.75;;;-1.90;83.30;;;;;;5107239;28;20532;-65
2021/01/19 08:50:15;;;;;;;90.18;42.33;;;-1.90;83.20;;;;;;5108285;28;20039;-63
2021/01/19 08:52:41;;;;;;;75.10;36.42;;;-1.90;82.70;;;;;;5105815;28;20055;-66
2021/01/19 08:55:16;;;;;;;;;;;-1.80;82.50;;;;;;5107268;28;20063;-65
2021/01/19 08:57:43;;;;;;;125.28;58.08;;;-1.70;82.10;;;;;;5107760;28;19916;-66
2021/01/19 09:00:10;;;;;;;107.50;51.92;;;-1.70;81.80;;;;;;5089279;28;20104;-66
2021/01/19 09:02:35;;;;;;;110.57;54.40;;;-1.70;82.20;;;;;;5107641;28;20032;-64
2021/01/19 09:05:01;;;;;;;;;;;-1.60;82.50;;;;;;5089678;28;20474;-65
2021/01/19 09:07:29;;;;;;;123.28;57.53;;;-1.60;82.20;;;;;;5107950;28;19919;-64
2021/01/19 09:09:55;;;;;;;117.43;57.95;;;-1.50;83.20;;;;;;5103131;28;20415;-65
2021/01/19 09:12:21;;;;;;;;;;;-1.50;82.40;;;;;;5107011;28;20044;-64
2021/01/19 09:14:51;;;;;;;128.95;58.75;;;-1.40;82.10;;;;;;5107573;28;19923;-66
2021/01/19 09:17:27;;;;;;;118.35;54.10;;;-1.40;81.70;;;;;;5106877;28;20035;-66
2021/01/19 09:20:07;;;;;;;123.38;54.83;;;-1.30;82.10;;;;;;5072434;28;20043;-65
2021/01/19 09:22:33;;;;;;;117.05;57.92;;;-1.30;81.10;;;;;;5085089;28;20059;-65
2021/01/19 09:24:58;;;;;;;;;;;-1.30;81.20;;;;;;5107824;27;20482;-64
2021/01/19 09:27:24;;;;;;;152.40;76.65;;;-1.30;81.60;;;;;;5107525;28;19919;-63
2021/01/19 09:29:50;;;;;;;;;;;-1.30;82.00;;;;;;5107221;28;20063;-65
2021/01/19 09:32:18;;;;;;;178.33;98.03;;;-1.20;81.90;;;;;;5107028;28;20387;-66
2021/01/19 09:34:47;;;;;;;143.80;66.13;;;-1.20;82.00;;;;;;5107218;28;20028;-66
2021/01/19 09:37:14;;;;;;;135.43;61.72;;;-1.20;82.40;;;;;;5088596;28;20140;-65
2021/01/19 09:39:44;;;;;;;132.00;61.78;;;-1.20;81.60;;;;;;5106956;28;20031;-65
2021/01/19 09:42:10;;;;;;;149.55;68.03;;;-1.10;81.90;;;;;;5102495;28;20836;-67
2021/01/19 09:44:36;;;;;;;;;;;-1.10;81.60;;;;;;5107166;28;20072;-66
2021/01/19 09:47:07;;;;;;;137.23;63.37;;;-1.10;81.70;;;;;;5088578;28;20817;-68
2021/01/19 09:49:39;;;;;;;139.70;60.83;;;-1.10;81.40;;;;;;5106938;28;20045;-68
2021/01/19 09:52:08;;;;;;;126.78;58.00;;;-1.00;81.20;;;;;;5106664;28;20077;-68
2021/01/19 09:54:34;;;;;;;119.78;55.63;;;-1.00;81.50;;;;;;5106638;28;20407;-66
2021/01/19 09:57:00;;;;;;;;;;;-1.00;81.50;;;;;;5088846;28;20034;-68
2021/01/19 09:59:27;;;;;;;108.15;50.90;;;-0.90;81.30;;;;;;5104337;28;20527;-68
2021/01/19 10:01:57;;;;;;;100.45;50.15;;;-0.90;80.50;;;;;;5105976;28;20035;-67
2021/01/19 10:04:24;;;;;;;112.03;53.47;;;-0.90;80.30;;;;;;5106323;28;20854;-65
2021/01/19 10:07:07;;;;;;;108.47;50.67;;;-0.90;80.60;;;;;;5106539;28;20690;-67
2021/01/19 10:09:33;;;;;;;112.57;52.55;;;-0.80;80.40;;;;;;5106586;28;20039;-67
2021/01/19 10:12:01;;;;;;;115.70;52.65;;;-0.80;80.40;;;;;;5105807;27;20674;-67
2021/01/19 10:14:44;;;;;;;119.07;56.40;;;-0.70;80.70;;;;;;5102053;28;20039;-65
2021/01/19 10:17:10;;;;;;;285.02;111.70;;;-0.70;80.90;;;;;;5105741;28;20047;-65
2021/01/19 10:19:36;;;;;;;;;;;-0.60;80.80;;;;;;5106597;28;20077;-66
2021/01/19 10:22:07;;;;;;;120.50;53.13;;;-0.50;79.90;;;;;;5104899;28;20265;-64
2021/01/19 10:24:33;;;;;;;107.20;49.65;;;-0.50;80.00;;;;;;5103143;28;20043;-66
2021/01/19 10:27:04;;;;;;;191.68;74.60;;;-0.40;80.20;;;;;;5100276;28;20427;-67
2021/01/19 10:29:43;;;;;;;111.20;52.55;;;-0.30;80.00;;;;;;5088648;28;20040;-67
2021/01/19 10:32:13;;;;;;;146.80;69.20;;;-0.10;79.70;;;;;;5084483;28;20036;-66
2021/01/19 10:34:44;;;;;;;103.07;48.38;;;0.00;79.30;;;;;;5088127;28;20046;-66
2021/01/19 10:37:10;;;;;;;96.80;49.42;;;0.00;78.90;;;;;;5069268;28;20032;-66
2021/01/19 10:39:49;;;;;;;91.53;47.10;;;0.20;78.90;;;;;;5087582;28;20040;-67
2021/01/19 10:42:28;;;;;;;90.50;45.78;;;0.30;78.40;;;;;;5085680;28;20109;-66
2021/01/19 10:45:03;;;;;;;127.35;62.90;;;0.40;77.90;;;;;;5063905;28;20040;-67
2021/01/19 10:47:40;;;;;;;98.63;51.15;;;0.50;77.60;;;;;;5086938;28;20048;-66
2021/01/19 10:50:13;;;;;;;116.18;56.20;;;0.50;77.40;;;;;;5085313;28;20040;-65
2021/01/19 10:52:50;;;;;;;110.13;54.95;;;0.60;77.70;;;;;;5092161;28;20065;-65
2021/01/19 10:55:16;;;;;;;102.10;51.58;;;0.60;77.00;;;;;;5087723;28;20081;-66
2021/01/19 10:57:43;;;;;;;;;;;0.60;77.30;;;;;;5085774;28;20039;-66
2021/01/19 11:00:09;;;;;;;93.43;48.60;;;0.60;77.20;;;;;;5085812;28;19920;-66
2021/01/19 11:02:35;;;;;;;94.80;48.35;;;0.60;77.40;;;;;;5089452;28;20044;-65
2021/01/19 11:05:00;;;;;;;;;;;0.60;77.20;;;;;;5088377;28;20416;-65
2021/01/19 11:07:26;;;;;;;111.38;54.97;;;0.70;77.00;;;;;;5085023;28;20063;-65
2021/01/19 11:09:53;;;;;;;;;;;0.70;76.50;;;;;;5092631;28;20033;-65
2021/01/19 11:12:19;;;;;;;135.25;65.75;;;0.80;76.50;;;;;;5085161;28;20281;-71
2021/01/19 11:14:44;;;;;;;;;;;0.80;76.10;;;;;;5088345;28;20040;-68
2021/01/19 11:17:10;;;;;;;125.80;64.35;;;0.80;75.80;;;;;;5087352;28;20395;-72
2021/01/19 11:19:36;;;;;;;;;;;0.70;76.00;;;;;;5067155;28;20051;-66
2021/01/19 11:22:01;;;;;;;125.03;60.03;;;0.80;76.40;;;;;;5085347;28;19920;-66
2021/01/19 11:24:28;;;;;;;;;;;0.80;75.80;;;;;;5091450;28;20074;-65
2021/01/19 11:26:54;;;;;;;135.45;67.43;;;0.90;76.10;;;;;;5090237;28;20010;-65
2021/01/19 11:29:20;;;;;;;;;;;0.80;77.00;;;;;;5085312;27;20120;-65
2021/01/19 11:31:45;;;;;;;117.13;57.13;;;0.80;76.70;;;;;;5084803;28;20426;-64
2021/01/19 11:34:12;;;;;;;;;;;0.80;77.40;;;;;;5087063;28;20040;-65
2021/01/19 11:36:39;;;;;;;126.30;58.55;;;0.80;77.90;;;;;;5085582;28;19919;-66
2021/01/19 11:39:07;;;;;;;106.63;55.30;;;0.80;78.50;;;;;;5085176;28;20126;-65
2021/01/19 11:41:33;;;;;;;99.72;51.83;;;0.80;79.10;;;;;;5066767;28;20036;-66
2021/01/19 11:43:59;;;;;;;133.48;68.75;;;0.90;79.50;;;;;;5084875;28;20139;-66
2021/01/19 11:46:25;;;;;;;;;;;1.00;79.80;;;;;;5086562;28;20119;-66
2021/01/19 11:48:52;;;;;;;109.60;58.95;;;1.10;79.50;;;;;;5086186;28;20049;-64
2021/01/19 11:51:20;;;;;;;118.50;58.83;;;1.10;79.30;;;;;;5085887;28;20496;-65
2021/01/19 11:53:47;;;;;;;194.38;101.25;;;1.20;79.50;;;;;;5088504;28;20040;-66
2021/01/19 11:56:13;;;;;;;113.32;59.28;;;1.40;79.70;;;;;;5088911;28;20040;-66
2021/01/19 11:58:39;;;;;;;;;;;1.50;79.40;;;;;;5089334;28;20407;-66
2021/01/19 12:01:04;;;;;;;89.30;47.10;;;1.70;79.40;;;;;;5090104;28;20005;-65
2021/01/19 12:03:30;;;;;;;;;;;1.80;79.10;;;;;;5089003;28;20495;-65
2021/01/19 12:05:56;;;;;;;83.05;47.35;;;1.90;79.30;;;;;;5070430;28;19927;-66
2021/01/19 12:08:21;;;;;;;;;;;2.10;79.10;;;;;;5085244;28;20973;-65
2021/01/19 12:10:47;;;;;;;97.55;56.17;;;2.30;78.30;;;;;;5088386;27;20474;-66
2021/01/19 12:13:13;;;;;;;;;;;2.40;78.10;;;;;;5070810;28;20734;-65
2021/01/19 12:15:42;;;;;;;75.57;39.55;;;2.50;77.50;;;;;;5087501;28;19916;-66
2021/01/19 12:18:10;;;;;;;87.30;46.38;;;2.60;77.30;;;;;;5088449;28;20043;-67
2021/01/19 12:20:37;;;;;;;81.55;42.88;;;2.70;77.30;;;;;;5088407;28;20040;-66
2021/01/19 12:23:04;;;;;;;83.03;45.88;;;2.80;77.20;;;;;;5088272;28;20467;-66
2021/01/19 12:25:30;;;;;;;101.43;56.95;;;2.80;76.70;;;;;;5089574;28;20039;-66
2021/01/19 12:27:56;;;;;;;113.85;61.38;;;2.90;76.80;;;;;;5092294;28;20048;-66
2021/01/19 12:30:22;;;;;;;;;;;2.90;76.30;;;;;;5099986;28;20100;-67
2021/01/19 12:32:48;;;;;;;114.55;64.35;;;2.80;76.20;;;;;;5093635;28;19927;-66
2021/01/19 12:35:14;;;;;;;;;;;2.90;76.50;;;;;;5082558;28;20036;-66
2021/01/19 12:37:40;;;;;;;122.05;68.95;;;2.80;76.80;;;;;;5096708;28;20253;-66
2021/01/19 12:40:05;;;;;;;;;;;2.80;76.50;;;;;;5092097;28;20740;-65
2021/01/19 12:42:31;;;;;;;138.75;72.13;;;2.80;76.30;;;;;;5086459;28;19923;-66
2021/01/19 12:44:57;;;;;;;;;;;2.80;76.60;;;;;;5089860;28;20396;-67
2021/01/19 12:47:23;;;;;;;99.45;49.80;;;2.80;76.60;;;;;;5091735;28;20455;-67